createdAt,value
2017-11-16T00:02:09.176Z,3.00
2017-11-16T00:04:35.810Z,3.40
2017-11-16T00:07:02.616Z,3.50
2017-11-16T00:09:29.262Z,3.47
2017-11-16T00:11:55.924Z,3.50
2017-11-16T00:14:22.561Z,3.53
2017-11-16T00:16:49.222Z,3.60
2017-11-16T00:19:15.897Z,3.60
2017-11-16T00:21:42.562Z,3.80
2017-11-16T00:24:09.205Z,3.60
2017-11-16T00:26:35.842Z,3.03
2017-11-16T00:29:02.510Z,3.50
2017-11-16T00:31:29.153Z,4.20
2017-11-16T00:33:55.909Z,3.60
2017-11-16T00:36:22.562Z,3.30
2017-11-16T00:38:49.228Z,3.07
2017-11-16T00:41:15.922Z,2.87
2017-11-16T00:43:42.579Z,3.60
2017-11-16T00:46:09.234Z,2.83
2017-11-16T00:48:35.909Z,3.80
2017-11-16T00:51:02.547Z,3.57
2017-11-16T00:53:29.178Z,3.63
2017-11-16T00:55:55.833Z,3.43
2017-11-16T00:58:22.465Z,3.70
2017-11-16T01:00:49.206Z,3.57
2017-11-16T01:03:15.878Z,3.13
2017-11-16T01:05:42.584Z,3.30
2017-11-16T01:08:09.222Z,4.20
2017-11-16T01:10:35.873Z,3.47
2017-11-16T01:13:02.510Z,3.60
2017-11-16T01:15:29.190Z,3.40
2017-11-16T01:17:55.825Z,3.43
2017-11-16T01:20:22.493Z,3.47
2017-11-16T01:22:49.175Z,3.03
2017-11-16T01:25:15.963Z,3.10
2017-11-16T01:27:42.642Z,3.40
2017-11-16T01:30:09.393Z,3.53
2017-11-16T01:32:36.041Z,3.20
2017-11-16T01:35:02.675Z,3.63
2017-11-16T01:37:29.343Z,3.30
2017-11-16T01:39:55.982Z,3.30
2017-11-16T01:42:22.633Z,3.00
2017-11-16T01:44:49.326Z,3.17
2017-11-16T01:47:16.046Z,2.97
2017-11-16T01:49:42.686Z,3.03
2017-11-16T01:52:09.464Z,3.77
2017-11-16T01:54:36.149Z,3.27
2017-11-16T01:57:02.809Z,3.47
2017-11-16T01:59:29.470Z,3.00
2017-11-16T02:01:56.102Z,2.90
2017-11-16T02:04:22.751Z,3.07
2017-11-16T02:06:49.424Z,3.00
2017-11-16T02:09:16.140Z,2.80
2017-11-16T02:11:42.781Z,3.47
2017-11-16T02:14:09.522Z,3.43
2017-11-16T02:16:36.170Z,2.97
2017-11-16T02:19:02.878Z,3.20
2017-11-16T02:21:29.514Z,3.37
2017-11-16T02:23:56.227Z,3.50
2017-11-16T02:26:22.857Z,3.40
2017-11-16T02:28:49.514Z,2.83
2017-11-16T02:31:16.215Z,3.50
2017-11-16T02:33:43.537Z,3.27
2017-11-16T02:36:10.309Z,3.40
2017-11-16T02:38:36.950Z,2.70
2017-11-16T02:41:03.620Z,3.10
2017-11-16T02:43:30.362Z,3.00
2017-11-16T02:45:57.031Z,3.60
2017-11-16T02:48:23.771Z,4.33
2017-11-16T02:50:50.419Z,3.10
2017-11-16T02:53:17.186Z,3.20
2017-11-16T02:55:43.924Z,2.93
2017-11-16T02:58:10.567Z,3.13
2017-11-16T03:00:37.221Z,3.00
2017-11-16T03:03:03.953Z,3.17
2017-11-16T03:05:30.634Z,3.20
2017-11-16T03:07:57.286Z,3.20
2017-11-16T03:10:23.947Z,2.97
2017-11-16T03:12:50.598Z,2.87
2017-11-16T03:15:17.339Z,2.93
2017-11-16T03:17:44.013Z,2.90
2017-11-16T03:20:10.677Z,2.87
2017-11-16T03:22:37.321Z,3.20
2017-11-16T03:25:03.987Z,3.03
2017-11-16T03:27:30.674Z,3.40
2017-11-16T03:29:57.333Z,2.57
2017-11-16T03:32:23.966Z,3.37
2017-11-16T03:34:50.646Z,3.13
2017-11-16T03:37:17.306Z,2.43
2017-11-16T03:39:43.991Z,2.93
2017-11-16T03:42:10.703Z,3.07
2017-11-16T03:44:37.363Z,2.40
2017-11-16T03:47:04.014Z,2.67
2017-11-16T03:49:30.702Z,2.73
2017-11-16T03:51:57.366Z,2.60
2017-11-16T03:54:23.999Z,3.10
2017-11-16T03:56:50.652Z,2.37
2017-11-16T03:59:17.314Z,3.03
2017-11-16T04:01:44.661Z,2.73
2017-11-16T04:04:11.571Z,3.43
2017-11-16T04:06:38.219Z,2.80
2017-11-16T04:09:04.901Z,2.50
2017-11-16T04:11:31.542Z,2.90
2017-11-16T04:13:58.189Z,2.97
2017-11-16T04:16:24.826Z,2.83
2017-11-16T04:18:51.477Z,3.00
2017-11-16T04:21:18.233Z,2.87
2017-11-16T04:23:44.961Z,2.90
2017-11-16T04:26:11.636Z,2.27
2017-11-16T04:28:38.295Z,3.87
2017-11-16T04:31:04.974Z,2.90
2017-11-16T04:33:31.638Z,2.67
2017-11-16T04:35:58.294Z,2.80
2017-11-16T04:38:24.927Z,2.60
2017-11-16T04:40:51.586Z,2.40
2017-11-16T04:43:18.236Z,2.93
2017-11-16T04:45:44.995Z,3.00
2017-11-16T04:48:11.667Z,3.00
2017-11-16T04:50:38.382Z,2.47
2017-11-16T04:53:05.033Z,2.70
2017-11-16T04:55:31.691Z,3.13
2017-11-16T04:57:58.346Z,2.70
2017-11-16T05:00:24.978Z,3.07
2017-11-16T05:02:51.624Z,2.80
2017-11-16T05:05:18.257Z,2.70
2017-11-16T05:07:44.969Z,2.73
2017-11-16T05:10:11.720Z,3.33
2017-11-16T05:12:38.410Z,2.90
2017-11-16T05:15:05.042Z,2.57
2017-11-16T05:17:31.691Z,2.50
2017-11-16T05:19:58.346Z,2.57
2017-11-16T05:22:24.974Z,2.63
2017-11-16T05:24:51.621Z,2.50
2017-11-16T05:27:18.362Z,2.77
2017-11-16T05:29:45.101Z,3.17
2017-11-16T05:32:11.764Z,2.60
2017-11-16T05:34:38.412Z,2.60
2017-11-16T05:37:05.046Z,2.43
2017-11-16T05:39:31.706Z,2.63
2017-11-16T05:41:58.345Z,2.40
2017-11-16T05:44:24.977Z,3.10
2017-11-16T05:46:51.637Z,2.40
2017-11-16T05:49:18.273Z,2.70
2017-11-16T05:51:44.941Z,2.83
2017-11-16T05:54:11.950Z,2.30
2017-11-16T05:56:38.663Z,2.50
2017-11-16T05:59:05.332Z,2.10
2017-11-16T06:01:32.006Z,2.30
2017-11-16T06:03:58.654Z,2.50
2017-11-16T06:06:25.309Z,2.80
2017-11-16T06:08:51.941Z,2.67
2017-11-16T06:11:18.606Z,2.87
2017-11-16T06:13:45.336Z,2.73
2017-11-16T06:16:12.025Z,2.33
2017-11-16T06:18:38.686Z,2.00
2017-11-16T06:21:05.405Z,2.60
2017-11-16T06:23:32.134Z,2.33
2017-11-16T06:25:58.865Z,2.43
2017-11-16T06:28:25.513Z,2.67
2017-11-16T06:30:52.217Z,2.60
2017-11-16T06:33:18.903Z,2.53
2017-11-16T06:35:45.730Z,2.50
2017-11-16T06:38:12.396Z,3.17
2017-11-16T06:40:39.060Z,2.87
2017-11-16T06:43:05.713Z,2.60
2017-11-16T06:45:32.370Z,2.70
2017-11-16T06:47:59.034Z,2.80
2017-11-16T06:50:25.688Z,2.80
2017-11-16T06:52:52.321Z,2.30
2017-11-16T06:55:18.977Z,2.70
2017-11-16T06:57:45.746Z,2.50
2017-11-16T07:00:12.422Z,2.73
2017-11-16T07:02:39.093Z,2.63
2017-11-16T07:05:05.726Z,2.50
2017-11-16T07:07:32.375Z,2.90
2017-11-16T07:09:59.009Z,2.50
2017-11-16T07:12:25.661Z,3.00
2017-11-16T07:14:52.294Z,3.17
2017-11-16T07:17:18.950Z,2.90
2017-11-16T07:19:45.811Z,2.77
2017-11-16T07:22:13.215Z,3.00
2017-11-16T07:24:39.893Z,3.17
2017-11-16T07:27:06.561Z,2.77
2017-11-16T07:29:33.608Z,2.80
2017-11-16T07:32:00.246Z,2.47
2017-11-16T07:34:26.894Z,2.60
2017-11-16T07:36:53.529Z,2.90
2017-11-16T07:39:20.203Z,2.93
2017-11-16T07:41:46.873Z,2.40
2017-11-16T07:44:13.529Z,2.87
2017-11-16T07:46:40.179Z,6.97
2017-11-16T07:49:06.829Z,7.47
2017-11-16T07:51:33.463Z,4.30
2017-11-16T07:54:00.124Z,3.13
2017-11-16T07:56:26.757Z,3.23
2017-11-16T07:58:53.385Z,3.40
2017-11-16T08:01:20.057Z,3.30
2017-11-16T08:03:46.694Z,3.07
2017-11-16T08:06:13.373Z,3.93
2017-11-16T08:08:40.022Z,3.40
2017-11-16T08:11:06.878Z,2.40
2017-11-16T08:13:33.509Z,3.20
2017-11-16T08:16:00.157Z,3.30
2017-11-16T08:18:26.797Z,2.53
2017-11-16T08:20:53.573Z,2.73
2017-11-16T08:23:20.210Z,3.00
2017-11-16T08:25:46.882Z,2.53
2017-11-16T08:28:13.537Z,3.53
2017-11-16T08:30:40.174Z,3.13
2017-11-16T08:33:06.838Z,3.50
2017-11-16T08:35:33.487Z,3.90
2017-11-16T08:38:00.149Z,2.80
2017-11-16T08:40:26.801Z,4.20
2017-11-16T08:42:53.437Z,3.30
2017-11-16T08:45:20.087Z,3.73
2017-11-16T08:47:46.773Z,8.83
2017-11-16T08:50:13.410Z,9.23
2017-11-16T08:52:40.058Z,13.60
2017-11-16T08:55:06.786Z,6.60
2017-11-16T08:57:33.537Z,6.73
2017-11-16T09:00:00.207Z,6.10
2017-11-16T09:02:26.963Z,6.93
2017-11-16T09:04:53.697Z,7.50
2017-11-16T09:07:20.346Z,7.57
2017-11-16T09:09:46.986Z,5.93
2017-11-16T09:12:13.658Z,6.93
2017-11-16T09:14:40.303Z,6.80
2017-11-16T09:17:06.954Z,5.93
2017-11-16T09:19:33.584Z,6.50
2017-11-16T09:22:00.266Z,6.27
2017-11-16T09:24:26.901Z,6.40
2017-11-16T09:26:53.565Z,6.53
2017-11-16T09:29:20.218Z,5.50
2017-11-16T09:31:46.867Z,5.50
2017-11-16T09:34:13.547Z,4.70
2017-11-16T09:36:40.265Z,4.50
2017-11-16T09:39:06.926Z,5.57
2017-11-16T09:41:33.558Z,4.60
2017-11-16T09:44:00.326Z,5.80
2017-11-16T09:46:26.958Z,5.40
2017-11-16T09:48:53.600Z,4.60
2017-11-16T09:51:20.286Z,5.40
2017-11-16T09:53:46.925Z,5.63
2017-11-16T09:56:13.624Z,5.10
2017-11-16T09:58:40.337Z,6.03
2017-11-16T10:01:07.095Z,6.20
2017-11-16T10:03:33.734Z,5.40
2017-11-16T10:06:00.398Z,6.07
2017-11-16T10:08:27.037Z,6.67
2017-11-16T10:10:53.674Z,6.10
2017-11-16T10:13:20.318Z,5.40
2017-11-16T10:15:47.013Z,6.33
2017-11-16T10:18:13.775Z,4.97
2017-11-16T10:20:40.410Z,4.40
2017-11-16T10:23:07.067Z,5.53
2017-11-16T10:25:33.697Z,4.93
2017-11-16T10:28:00.366Z,5.50
2017-11-16T10:30:27.012Z,4.57
2017-11-16T10:32:53.662Z,4.00
2017-11-16T10:35:20.297Z,5.30
2017-11-16T10:37:46.965Z,4.47
2017-11-16T10:40:13.598Z,4.80
2017-11-16T10:42:40.261Z,4.67
2017-11-16T10:45:06.909Z,4.63
2017-11-16T10:47:33.545Z,4.20
2017-11-16T10:50:00.198Z,4.70
2017-11-16T10:52:26.841Z,5.00
2017-11-16T10:54:53.499Z,4.30
2017-11-16T10:57:20.134Z,4.27
2017-11-16T10:59:46.789Z,4.07
2017-11-16T11:02:13.441Z,4.73
2017-11-16T11:04:40.122Z,4.30
2017-11-16T11:07:06.762Z,4.27
2017-11-16T11:09:33.394Z,4.17
2017-11-16T11:12:00.091Z,4.23
2017-11-16T11:14:26.875Z,4.30
2017-11-16T11:16:53.605Z,5.10
2017-11-16T11:19:20.273Z,4.43
2017-11-16T11:21:46.922Z,4.33
2017-11-16T11:24:13.561Z,4.30
2017-11-16T11:26:40.230Z,4.30
2017-11-16T11:29:06.861Z,3.97
2017-11-16T11:31:33.582Z,4.17
2017-11-16T11:34:00.239Z,4.37
2017-11-16T11:36:26.869Z,4.60
2017-11-16T11:38:53.551Z,5.00
2017-11-16T11:41:20.202Z,4.50
2017-11-16T11:43:46.939Z,4.63
2017-11-16T11:46:13.582Z,4.50
2017-11-16T11:48:40.234Z,4.73
2017-11-16T11:51:06.865Z,4.03
2017-11-16T11:53:33.526Z,4.77
2017-11-16T11:56:00.162Z,4.43
2017-11-16T11:58:26.807Z,4.73
2017-11-16T12:00:53.453Z,4.10
2017-11-16T12:03:20.106Z,4.27
2017-11-16T12:05:46.765Z,4.30
2017-11-16T12:08:13.450Z,3.90
2017-11-16T12:10:40.128Z,4.20
2017-11-16T12:13:06.850Z,4.13
2017-11-16T12:15:33.506Z,4.33
2017-11-16T12:18:00.158Z,4.50
2017-11-16T12:20:26.789Z,3.70
2017-11-16T12:22:53.462Z,3.80
2017-11-16T12:25:20.117Z,4.10
2017-11-16T12:27:46.806Z,3.77
2017-11-16T12:30:13.476Z,4.30
2017-11-16T12:32:40.164Z,4.00
2017-11-16T12:35:06.810Z,3.40
2017-11-16T12:37:33.446Z,4.30
2017-11-16T12:40:00.110Z,4.10
2017-11-16T12:42:26.741Z,4.30
2017-11-16T12:44:53.427Z,3.70
2017-11-16T12:47:20.064Z,4.10
2017-11-16T12:49:46.797Z,4.50
2017-11-16T12:52:13.465Z,4.03
2017-11-16T12:54:40.130Z,4.13
2017-11-16T12:57:06.760Z,4.10
2017-11-16T12:59:33.394Z,4.00
2017-11-16T13:02:00.047Z,3.60
2017-11-16T13:04:26.707Z,4.00
2017-11-16T13:06:53.355Z,4.63
2017-11-16T13:09:19.997Z,3.87
2017-11-16T13:11:46.862Z,3.80
2017-11-16T13:14:13.498Z,3.73
2017-11-16T13:16:40.154Z,4.20
2017-11-16T13:19:06.790Z,4.53
2017-11-16T13:21:33.454Z,4.20
2017-11-16T13:24:00.130Z,3.87
2017-11-16T13:26:26.757Z,4.43
2017-11-16T13:28:53.414Z,3.80
2017-11-16T13:31:20.062Z,4.00
2017-11-16T13:33:46.729Z,4.30
2017-11-16T13:36:13.366Z,3.10
2017-11-16T13:38:40.014Z,4.20
2017-11-16T13:41:06.642Z,3.80
2017-11-16T13:43:33.310Z,3.70
2017-11-16T13:45:59.942Z,3.53
2017-11-16T13:48:26.637Z,3.50
2017-11-16T13:50:53.286Z,3.50
2017-11-16T13:53:19.968Z,4.33
2017-11-16T13:55:46.791Z,3.83
2017-11-16T13:58:13.442Z,4.00
2017-11-16T14:00:40.101Z,4.07
2017-11-16T14:03:06.739Z,4.37
2017-11-16T14:05:33.397Z,4.20
2017-11-16T14:08:00.053Z,4.47
2017-11-16T14:10:26.902Z,4.33
2017-11-16T14:12:53.554Z,5.00
2017-11-16T14:15:20.196Z,3.27
2017-11-16T14:17:46.851Z,3.73
2017-11-16T14:20:13.480Z,3.40
2017-11-16T14:22:40.144Z,4.00
2017-11-16T14:25:06.782Z,4.47
2017-11-16T14:27:33.430Z,3.70
2017-11-16T14:30:00.061Z,4.00
2017-11-16T14:32:26.839Z,3.47
2017-11-16T14:34:53.513Z,4.20
2017-11-16T14:37:20.156Z,3.53
2017-11-16T14:39:46.810Z,4.03
2017-11-16T14:42:13.447Z,4.07
2017-11-16T14:44:40.124Z,4.70
2017-11-16T14:47:06.806Z,3.60
2017-11-16T14:49:33.469Z,3.67
2017-11-16T14:52:00.102Z,3.90
2017-11-16T14:54:26.759Z,3.47
2017-11-16T14:56:53.399Z,3.60
2017-11-16T14:59:20.063Z,4.53
2017-11-16T15:01:46.705Z,3.83
2017-11-16T15:04:13.370Z,4.23
2017-11-16T15:06:40.001Z,3.90
2017-11-16T15:09:06.630Z,4.00
2017-11-16T15:11:33.281Z,4.30
2017-11-16T15:13:59.914Z,4.23
2017-11-16T15:16:26.566Z,4.80
2017-11-16T15:18:53.204Z,4.00
2017-11-16T15:21:19.960Z,3.70
2017-11-16T15:23:46.729Z,3.50
2017-11-16T15:26:13.378Z,3.43
2017-11-16T15:28:40.019Z,3.13
2017-11-16T15:31:06.722Z,3.40
2017-11-16T15:33:33.356Z,3.63
2017-11-16T15:36:00.085Z,3.30
2017-11-16T15:38:27.562Z,3.80
2017-11-16T15:40:54.309Z,3.13
2017-11-16T15:43:21.096Z,3.30
2017-11-16T15:45:47.753Z,3.23
2017-11-16T15:48:14.398Z,3.60
2017-11-16T15:50:41.031Z,3.67
2017-11-16T15:53:07.679Z,3.40
2017-11-16T15:55:34.537Z,3.13
2017-11-16T15:58:01.310Z,3.37
2017-11-16T16:00:28.032Z,2.93
2017-11-16T16:02:54.782Z,2.87
2017-11-16T16:05:21.413Z,3.10
2017-11-16T16:07:48.085Z,2.93
2017-11-16T16:10:14.717Z,3.13
2017-11-16T16:12:41.390Z,3.70
2017-11-16T16:15:08.101Z,2.93
2017-11-16T16:17:34.758Z,3.10
2017-11-16T16:20:01.678Z,3.00
2017-11-16T16:22:28.371Z,3.10
2017-11-16T16:24:55.045Z,3.67
2017-11-16T16:27:21.682Z,2.43
2017-11-16T16:29:48.358Z,2.90
2017-11-16T16:32:14.993Z,3.13
2017-11-16T16:34:41.762Z,3.10
2017-11-16T16:37:08.406Z,3.50
2017-11-16T16:39:35.058Z,2.93
2017-11-16T16:42:01.803Z,2.83
2017-11-16T16:44:28.461Z,3.27
2017-11-16T16:46:55.109Z,2.97
2017-11-16T16:49:21.742Z,2.83
2017-11-16T16:51:48.423Z,3.10
2017-11-16T16:54:15.065Z,2.90
2017-11-16T16:56:41.816Z,3.13
2017-11-16T16:59:08.451Z,3.20
2017-11-16T17:01:35.146Z,3.13
2017-11-16T17:04:01.814Z,3.57
2017-11-16T17:06:28.522Z,3.40
2017-11-16T17:08:55.182Z,2.87
2017-11-16T17:11:21.827Z,3.20
2017-11-16T17:16:21.580Z,2.80
2017-11-16T17:18:48.229Z,3.27
2017-11-16T17:21:14.866Z,2.97
2017-11-16T17:23:41.522Z,3.10
2017-11-16T17:26:08.149Z,2.93
2017-11-16T17:28:34.855Z,3.53
2017-11-16T17:31:01.494Z,2.70
2017-11-16T17:33:28.174Z,2.80
2017-11-16T17:35:54.886Z,2.87
2017-11-16T17:38:21.522Z,3.17
2017-11-16T17:40:48.176Z,3.00
2017-11-16T17:43:14.805Z,3.30
2017-11-16T17:45:41.448Z,3.27
2017-11-16T17:48:08.077Z,3.17
2017-11-16T17:50:34.726Z,3.20
2017-11-16T17:53:01.363Z,3.33
2017-11-16T17:55:28.014Z,2.57
2017-11-16T17:57:54.651Z,3.20
2017-11-16T18:00:21.302Z,2.60
2017-11-16T18:02:47.948Z,3.40
2017-11-16T18:05:14.605Z,3.13
2017-11-16T18:07:41.242Z,2.50
2017-11-16T18:10:07.876Z,3.27
2017-11-16T18:12:34.539Z,2.83
2017-11-16T18:15:01.174Z,3.03
2017-11-16T18:17:27.833Z,3.00
2017-11-16T18:19:54.469Z,3.10
2017-11-16T18:22:21.120Z,3.00
2017-11-16T18:24:47.774Z,3.30
2017-11-16T18:27:14.427Z,2.60
2017-11-16T18:29:41.066Z,2.70
2017-11-16T18:32:07.751Z,3.03
2017-11-16T18:34:34.384Z,3.20
2017-11-16T18:37:01.163Z,3.40
2017-11-16T18:39:27.798Z,2.30
2017-11-16T18:41:54.429Z,2.67
2017-11-16T18:44:21.110Z,3.10
2017-11-16T18:46:47.744Z,2.87
2017-11-16T18:49:14.393Z,2.90
2017-11-16T18:51:41.034Z,2.93
2017-11-16T18:54:07.685Z,3.00
2017-11-16T18:56:34.320Z,2.80
2017-11-16T18:59:01.019Z,2.87
2017-11-16T19:01:27.649Z,2.70
2017-11-16T19:03:54.320Z,2.90
2017-11-16T19:06:20.978Z,2.97
2017-11-16T19:08:47.713Z,2.87
2017-11-16T19:11:14.474Z,2.90
2017-11-16T19:13:41.229Z,2.67
2017-11-16T19:16:07.886Z,2.87
2017-11-16T19:18:34.517Z,3.50
2017-11-16T19:21:01.190Z,3.00
2017-11-16T19:23:27.835Z,2.90
2017-11-16T19:25:54.498Z,2.70
2017-11-16T19:28:21.235Z,3.30
2017-11-16T19:30:47.881Z,2.70
2017-11-16T19:33:14.526Z,2.93
2017-11-16T19:35:41.182Z,3.10
2017-11-16T19:38:07.833Z,2.70
2017-11-16T19:40:34.585Z,2.77
2017-11-16T19:43:01.242Z,3.40
2017-11-16T19:45:27.889Z,2.80
2017-11-16T19:47:54.563Z,2.50
2017-11-16T19:50:21.204Z,3.30
2017-11-16T19:52:47.850Z,2.50
2017-11-16T19:55:14.514Z,2.87
2017-11-16T19:57:41.165Z,3.07
2017-11-16T20:00:07.895Z,3.03
2017-11-16T20:02:34.559Z,2.57
2017-11-16T20:05:01.193Z,2.67
2017-11-16T20:07:27.906Z,3.10
2017-11-16T20:09:54.623Z,2.50
2017-11-16T20:12:21.265Z,2.20
2017-11-16T20:14:47.913Z,2.90
2017-11-16T20:17:14.551Z,3.13
2017-11-16T20:19:41.229Z,2.53
2017-11-16T20:22:07.866Z,2.77
2017-11-16T20:24:34.518Z,3.00
2017-11-16T20:27:01.154Z,3.03
2017-11-16T20:29:27.835Z,3.10
2017-11-16T20:31:54.499Z,2.50
2017-11-16T20:34:21.213Z,2.93
2017-11-16T20:36:48.354Z,2.60
2017-11-16T20:39:17.707Z,2.60
2017-11-16T20:41:54.272Z,2.60
2017-11-16T20:44:20.950Z,2.87
2017-11-16T20:47:04.252Z,2.90
2017-11-16T20:49:45.800Z,2.40
2017-11-16T20:52:16.985Z,2.70
2017-11-16T20:54:43.645Z,2.60
2017-11-16T20:57:10.297Z,2.80
2017-11-16T20:59:36.966Z,2.53
2017-11-16T21:02:03.606Z,2.90
2017-11-16T21:04:30.243Z,3.33
2017-11-16T21:06:56.909Z,3.17
2017-11-16T21:09:23.573Z,2.30
2017-11-16T21:11:50.222Z,2.90
2017-11-16T21:14:16.848Z,2.37
2017-11-16T21:16:43.531Z,2.70
2017-11-16T21:19:10.170Z,5.10
2017-11-16T21:21:36.810Z,3.37
2017-11-16T21:24:03.457Z,3.20
2017-11-16T21:26:30.108Z,3.40
2017-11-16T21:28:56.787Z,3.23
2017-11-16T21:31:23.445Z,2.73
2017-11-16T21:33:50.103Z,3.17
2017-11-16T21:36:16.732Z,3.40
2017-11-16T21:38:43.380Z,2.87
2017-11-16T21:41:10.014Z,3.27
2017-11-16T21:43:36.686Z,3.30
2017-11-16T21:46:03.322Z,3.30
2017-11-16T21:48:29.967Z,2.70
2017-11-16T21:50:56.627Z,3.00
2017-11-16T21:53:23.314Z,3.07
2017-11-16T21:55:49.986Z,2.77
2017-11-16T21:58:16.621Z,2.93
2017-11-16T22:00:43.343Z,2.50
2017-11-16T22:03:09.990Z,2.97
2017-11-16T22:05:36.738Z,2.43
2017-11-16T22:08:03.369Z,3.00
2017-11-16T22:10:30.024Z,2.70
2017-11-16T22:12:56.733Z,2.47
2017-11-16T22:15:23.439Z,3.23
2017-11-16T22:17:50.098Z,2.87
2017-11-16T22:20:16.762Z,3.00
2017-11-16T22:22:43.438Z,3.03
2017-11-16T22:25:10.082Z,2.93
2017-11-16T22:27:36.730Z,2.50
2017-11-16T22:30:03.366Z,3.03
2017-11-16T22:32:30.034Z,2.97
2017-11-16T22:34:56.705Z,3.10
2017-11-16T22:37:23.444Z,2.80
2017-11-16T22:39:50.084Z,3.10
2017-11-16T22:42:16.717Z,3.30
2017-11-16T22:44:43.383Z,2.57
2017-11-16T22:47:10.017Z,2.80
2017-11-16T22:49:36.662Z,2.63
2017-11-16T22:52:03.298Z,2.33
2017-11-16T22:54:29.944Z,2.60
2017-11-16T22:56:56.621Z,2.50
2017-11-16T22:59:23.335Z,3.27
2017-11-16T23:01:49.972Z,2.80
2017-11-16T23:04:16.609Z,2.60
2017-11-16T23:06:43.285Z,3.10
2017-11-16T23:09:09.922Z,3.23
2017-11-16T23:11:36.574Z,3.10
2017-11-16T23:14:03.208Z,2.60
2017-11-16T23:16:29.865Z,3.00
2017-11-16T23:18:56.516Z,3.20
2017-11-16T23:21:23.214Z,3.53
2017-11-16T23:23:49.854Z,2.60
2017-11-16T23:26:16.504Z,3.20
2017-11-16T23:28:43.172Z,3.30
2017-11-16T23:31:09.803Z,3.03
2017-11-16T23:33:36.506Z,3.60
2017-11-16T23:36:03.464Z,3.20
2017-11-16T23:38:30.114Z,3.27
2017-11-16T23:40:56.789Z,3.37
2017-11-16T23:43:23.472Z,3.73
2017-11-16T23:45:50.101Z,2.97
2017-11-16T23:48:16.778Z,3.47
2017-11-16T23:50:43.408Z,3.50
2017-11-16T23:53:10.050Z,3.53
2017-11-16T23:55:36.744Z,2.97
2017-11-16T23:58:03.428Z,2.80
